createdAt,value
2018-08-19T00:02:05.271Z,20.10
2018-08-19T00:04:33.894Z,20.20
2018-08-19T00:07:02.625Z,20.10
2018-08-19T00:09:33.736Z,20.10
2018-08-19T00:12:02.186Z,20.20
2018-08-19T00:14:33.634Z,20.30
2018-08-19T00:17:02.787Z,20.30
2018-08-19T00:19:32.676Z,20.40
2018-08-19T00:22:01.014Z,20.40
2018-08-19T00:24:29.386Z,20.40
2018-08-19T00:26:57.649Z,20.40
2018-08-19T00:29:43.598Z,20.30
2018-08-19T00:32:12.787Z,20.30
2018-08-19T00:34:41.025Z,20.10
2018-08-19T00:37:09.298Z,20.10
2018-08-19T00:39:37.666Z,20.10
2018-08-19T00:42:05.890Z,20.10
2018-08-19T00:44:34.434Z,20.10
2018-08-19T00:47:02.676Z,20.00
2018-08-19T00:49:30.955Z,20.00
2018-08-19T00:52:01.498Z,20.00
2018-08-19T00:54:30.844Z,20.10
2018-08-19T00:57:00.165Z,20.10
2018-08-19T00:59:29.582Z,20.10
2018-08-19T01:01:58.027Z,20.20
2018-08-19T01:04:26.867Z,20.20
2018-08-19T01:06:58.387Z,20.20
2018-08-19T01:09:29.656Z,20.20
2018-08-19T01:11:57.966Z,20.20
2018-08-19T01:14:26.255Z,20.10
2018-08-19T01:16:54.580Z,20.00
2018-08-19T01:19:22.849Z,20.10
2018-08-19T01:21:52.537Z,20.00
2018-08-19T01:24:21.173Z,19.90
2018-08-19T01:26:49.496Z,19.90
2018-08-19T01:29:33.497Z,20.00
2018-08-19T01:32:05.915Z,20.10
2018-08-19T01:34:34.317Z,20.00
2018-08-19T01:37:02.598Z,19.90
2018-08-19T01:39:30.831Z,19.90
2018-08-19T01:41:59.169Z,19.90
2018-08-19T01:44:27.408Z,20.00
2018-08-19T01:46:55.754Z,19.90
2018-08-19T01:49:24.009Z,19.90
2018-08-19T01:51:52.258Z,19.90
2018-08-19T01:54:21.643Z,20.00
2018-08-19T01:56:57.615Z,19.90
2018-08-19T01:59:29.184Z,19.80
2018-08-19T02:02:01.389Z,19.90
2018-08-19T02:04:31.162Z,20.00
2018-08-19T02:06:59.693Z,19.80
2018-08-19T02:09:27.970Z,19.70
2018-08-19T02:11:57.385Z,19.70
2018-08-19T02:14:26.051Z,19.80
2018-08-19T02:16:55.358Z,19.80
2018-08-19T02:19:23.658Z,19.90
2018-08-19T02:21:52.523Z,19.90
2018-08-19T02:24:20.870Z,19.90
2018-08-19T02:26:49.159Z,19.70
2018-08-19T02:29:29.835Z,19.60
2018-08-19T02:32:00.013Z,19.60
2018-08-19T02:34:30.594Z,19.40
2018-08-19T02:37:03.097Z,19.40
2018-08-19T02:39:32.108Z,19.40
2018-08-19T02:42:00.431Z,19.40
2018-08-19T02:44:28.645Z,19.40
2018-08-19T02:46:57.106Z,19.40
2018-08-19T02:49:25.469Z,19.40
2018-08-19T02:51:53.704Z,19.50
2018-08-19T02:54:22.095Z,19.50
2018-08-19T02:56:50.400Z,19.40
2018-08-19T02:59:18.646Z,19.40
2018-08-19T03:01:46.980Z,19.30
2018-08-19T03:04:15.343Z,19.30
2018-08-19T03:06:43.640Z,19.30
2018-08-19T03:09:11.988Z,19.20
2018-08-19T03:11:41.413Z,19.30
2018-08-19T03:14:09.766Z,19.30
2018-08-19T03:16:38.165Z,19.20
2018-08-19T03:19:08.517Z,19.30
2018-08-19T03:21:36.775Z,19.40
2018-08-19T03:24:05.100Z,19.40
2018-08-19T03:26:33.382Z,19.30
2018-08-19T03:29:06.053Z,19.30
2018-08-19T03:31:34.327Z,19.30
2018-08-19T03:34:02.572Z,19.30
2018-08-19T03:36:30.817Z,19.30
2018-08-19T03:39:08.043Z,19.40
2018-08-19T03:41:36.322Z,19.30
2018-08-19T03:44:04.647Z,19.20
2018-08-19T03:46:32.974Z,19.10
2018-08-19T03:49:01.233Z,19.20
2018-08-19T03:51:29.527Z,19.10
2018-08-19T03:53:57.829Z,19.10
2018-08-19T03:56:26.138Z,19.10
2018-08-19T03:59:00.353Z,19.20
2018-08-19T04:01:35.633Z,19.30
2018-08-19T04:04:03.897Z,19.20
2018-08-19T04:06:32.314Z,19.10
2018-08-19T04:09:00.580Z,19.10
2018-08-19T04:11:28.830Z,19.00
2018-08-19T04:13:57.098Z,19.00
2018-08-19T04:16:25.316Z,19.00
2018-08-19T04:19:00.693Z,19.00
2018-08-19T04:21:28.959Z,18.80
2018-08-19T04:23:57.242Z,18.80
2018-08-19T04:26:25.547Z,18.90
2018-08-19T04:28:53.862Z,18.90
2018-08-19T04:31:23.478Z,18.90
2018-08-19T04:33:51.833Z,18.90
2018-08-19T04:36:21.176Z,18.90
2018-08-19T04:38:49.477Z,18.80
2018-08-19T04:41:17.821Z,18.80
2018-08-19T04:43:46.807Z,18.80
2018-08-19T04:46:15.472Z,18.80
2018-08-19T04:48:44.943Z,18.80
2018-08-19T04:51:13.286Z,18.80
2018-08-19T04:53:41.536Z,18.80
2018-08-19T04:56:09.842Z,19.00
2018-08-19T04:58:38.089Z,18.90
2018-08-19T05:01:06.442Z,19.00
2018-08-19T05:03:34.700Z,18.90
2018-08-19T05:06:03.002Z,19.00
2018-08-19T05:08:31.395Z,19.00
2018-08-19T05:10:59.659Z,18.80
2018-08-19T05:13:28.886Z,18.80
2018-08-19T05:15:57.293Z,18.80
2018-08-19T05:18:25.505Z,18.80
2018-08-19T05:20:56.281Z,18.70
2018-08-19T05:23:24.529Z,18.90
2018-08-19T05:25:56.920Z,19.00
2018-08-19T05:28:25.258Z,18.90
2018-08-19T05:30:53.532Z,19.00
2018-08-19T05:33:21.896Z,19.00
2018-08-19T05:35:50.312Z,18.90
2018-08-19T05:38:18.578Z,18.70
2018-08-19T05:40:54.032Z,18.80
2018-08-19T05:43:23.081Z,18.80
2018-08-19T05:45:55.000Z,18.60
2018-08-19T05:48:23.462Z,18.70
2018-08-19T05:50:51.787Z,18.80
2018-08-19T05:53:20.443Z,18.80
2018-08-19T05:55:48.751Z,18.90
2018-08-19T05:58:17.303Z,19.00
2018-08-19T06:00:50.918Z,19.00
2018-08-19T06:03:19.239Z,19.10
2018-08-19T06:05:47.559Z,19.00
2018-08-19T06:08:16.486Z,19.00
2018-08-19T06:10:44.721Z,18.90
2018-08-19T06:13:13.205Z,19.10
2018-08-19T06:15:41.525Z,19.10
2018-08-19T06:18:10.065Z,19.10
2018-08-19T06:20:38.353Z,19.20
2018-08-19T06:23:06.691Z,19.20
2018-08-19T06:25:35.013Z,19.10
2018-08-19T06:28:03.262Z,19.20
2018-08-19T06:30:31.601Z,19.30
2018-08-19T06:32:59.985Z,19.30
2018-08-19T06:35:28.220Z,19.20
2018-08-19T06:37:56.540Z,19.40
2018-08-19T06:40:24.850Z,19.20
2018-08-19T06:42:53.142Z,19.40
2018-08-19T06:45:21.460Z,19.40
2018-08-19T06:47:49.785Z,19.40
2018-08-19T06:50:24.323Z,19.60
2018-08-19T06:52:53.221Z,19.70
2018-08-19T06:55:21.645Z,19.60
2018-08-19T06:57:49.957Z,19.50
2018-08-19T07:00:23.736Z,19.40
2018-08-19T07:02:52.046Z,19.40
2018-08-19T07:05:20.505Z,19.40
2018-08-19T07:07:48.835Z,19.40
2018-08-19T07:10:24.877Z,19.40
2018-08-19T07:12:57.357Z,19.50
2018-08-19T07:15:26.983Z,19.60
2018-08-19T07:17:55.190Z,19.60
2018-08-19T07:20:23.448Z,19.60
2018-08-19T07:22:51.666Z,19.60
2018-08-19T07:25:19.970Z,19.60
2018-08-19T07:27:48.217Z,19.70
2018-08-19T07:30:16.448Z,19.80
2018-08-19T07:32:44.741Z,19.80
2018-08-19T07:35:13.198Z,19.80
2018-08-19T07:37:41.483Z,19.80
2018-08-19T07:40:09.723Z,19.90
2018-08-19T07:42:38.024Z,19.90
2018-08-19T07:45:06.359Z,20.00
2018-08-19T07:47:34.682Z,20.00
2018-08-19T07:50:03.533Z,20.00
2018-08-19T07:52:31.811Z,20.00
2018-08-19T07:55:00.143Z,20.00
2018-08-19T07:57:29.463Z,20.00
2018-08-19T07:59:57.776Z,20.00
2018-08-19T08:02:28.776Z,20.00
2018-08-19T08:04:57.013Z,20.00
2018-08-19T08:07:27.719Z,20.00
2018-08-19T08:09:56.370Z,20.10
2018-08-19T08:12:24.708Z,20.00
2018-08-19T08:14:53.954Z,19.90
2018-08-19T08:17:23.494Z,19.90
2018-08-19T08:19:57.077Z,20.00
2018-08-19T08:22:27.529Z,20.00
2018-08-19T08:24:55.969Z,20.00
2018-08-19T08:27:24.263Z,20.00
2018-08-19T08:29:52.679Z,20.10
2018-08-19T08:32:20.922Z,20.00
2018-08-19T08:34:49.238Z,20.10
2018-08-19T08:37:17.533Z,20.20
2018-08-19T08:39:45.866Z,20.20
2018-08-19T08:42:14.131Z,20.30
2018-08-19T08:44:42.405Z,20.40
2018-08-19T08:47:12.349Z,20.30
2018-08-19T08:49:46.631Z,20.20
2018-08-19T08:52:21.359Z,20.10
2018-08-19T08:54:58.342Z,20.10
2018-08-19T08:57:26.828Z,20.20
2018-08-19T08:59:55.440Z,20.20
2018-08-19T09:02:23.772Z,20.20
2018-08-19T09:04:53.161Z,20.20
2018-08-19T09:07:21.737Z,20.30
2018-08-19T09:09:50.332Z,20.40
2018-08-19T09:12:28.658Z,20.50
2018-08-19T09:14:57.041Z,20.50
2018-08-19T09:17:25.371Z,20.40
2018-08-19T09:19:53.730Z,20.50
2018-08-19T09:22:22.005Z,20.50
2018-08-19T09:24:50.262Z,20.50
2018-08-19T09:27:18.510Z,20.40
2018-08-19T09:29:46.776Z,20.50
2018-08-19T09:32:15.123Z,20.60
2018-08-19T09:34:43.355Z,20.50
2018-08-19T09:37:11.606Z,20.50
2018-08-19T09:39:39.883Z,20.60
2018-08-19T09:42:11.146Z,20.70
2018-08-19T09:44:40.059Z,20.80
2018-08-19T09:47:08.329Z,20.80
2018-08-19T09:49:36.810Z,20.80
2018-08-19T09:52:05.167Z,20.80
2018-08-19T09:54:34.178Z,20.80
2018-08-19T09:57:02.825Z,20.80
2018-08-19T09:59:31.129Z,21.00
2018-08-19T10:01:59.401Z,21.00
2018-08-19T10:04:27.922Z,20.90
2018-08-19T10:07:06.438Z,20.90
2018-08-19T10:09:34.858Z,20.90
2018-08-19T10:12:03.182Z,21.10
2018-08-19T10:14:31.482Z,21.30
2018-08-19T10:16:59.734Z,21.30
2018-08-19T10:19:28.002Z,21.40
2018-08-19T10:21:56.298Z,21.60
2018-08-19T10:24:26.680Z,21.80
2018-08-19T10:26:55.326Z,22.10
2018-08-19T10:29:23.598Z,22.00
2018-08-19T10:32:00.499Z,22.00
2018-08-19T10:34:30.029Z,21.70
2018-08-19T10:36:59.099Z,21.70
2018-08-19T10:39:27.437Z,21.70
2018-08-19T10:42:12.418Z,21.90
2018-08-19T10:44:40.662Z,21.90
2018-08-19T10:47:08.888Z,21.70
2018-08-19T10:49:37.178Z,21.70
2018-08-19T10:52:07.706Z,21.80
2018-08-19T10:54:36.085Z,21.60
2018-08-19T10:57:16.241Z,21.70
2018-08-19T10:59:44.776Z,21.70
2018-08-19T11:02:12.952Z,21.70
2018-08-19T11:04:41.260Z,21.70
2018-08-19T11:07:09.499Z,21.80
2018-08-19T11:09:49.222Z,22.20
2018-08-19T11:12:17.588Z,22.50
2018-08-19T11:14:45.803Z,22.30
2018-08-19T11:17:14.354Z,22.40
2018-08-19T11:19:42.645Z,22.40
2018-08-19T11:22:10.935Z,22.60
2018-08-19T11:24:39.290Z,22.70
2018-08-19T11:27:07.775Z,22.70
2018-08-19T11:29:40.857Z,22.50
2018-08-19T11:32:09.420Z,22.40
2018-08-19T11:34:37.752Z,22.40
2018-08-19T11:37:06.066Z,22.30
2018-08-19T11:39:39.843Z,22.30
2018-08-19T11:42:08.108Z,22.50
2018-08-19T11:44:36.597Z,22.50
2018-08-19T11:47:04.861Z,22.40
2018-08-19T11:49:33.142Z,22.40
2018-08-19T11:52:02.929Z,22.60
2018-08-19T11:54:32.228Z,22.60
2018-08-19T11:57:06.574Z,22.70
2018-08-19T11:59:37.645Z,22.90
2018-08-19T12:02:07.458Z,22.80
2018-08-19T12:04:35.681Z,22.50
2018-08-19T12:07:03.937Z,22.50
2018-08-19T12:09:32.265Z,22.60
2018-08-19T12:12:00.561Z,22.70
2018-08-19T12:14:32.226Z,22.60
2018-08-19T12:17:00.835Z,22.50
2018-08-19T12:19:30.183Z,22.60
2018-08-19T12:22:02.553Z,22.60
2018-08-19T12:24:53.219Z,22.70
2018-08-19T12:27:23.206Z,22.60
2018-08-19T12:29:58.282Z,22.80
2018-08-19T12:32:28.393Z,23.00
2018-08-19T12:34:58.967Z,23.30
2018-08-19T12:37:28.491Z,23.50
2018-08-19T12:39:57.227Z,23.70
2018-08-19T12:42:26.880Z,23.90
2018-08-19T12:45:03.022Z,23.90
2018-08-19T12:47:31.293Z,23.70
2018-08-19T12:50:01.157Z,23.70
2018-08-19T12:52:30.594Z,23.80
2018-08-19T12:55:03.253Z,23.50
2018-08-19T12:57:31.549Z,23.60
2018-08-19T13:00:16.123Z,23.60
2018-08-19T13:02:45.838Z,23.60
2018-08-19T13:05:15.126Z,23.70
2018-08-19T13:07:43.545Z,23.80
2018-08-19T13:10:11.785Z,23.70
2018-08-19T13:12:44.101Z,23.60
2018-08-19T13:15:12.365Z,23.70
2018-08-19T13:17:40.853Z,23.70
2018-08-19T13:20:09.175Z,23.90
2018-08-19T13:22:45.705Z,24.00
2018-08-19T13:25:13.959Z,24.10
2018-08-19T13:27:42.221Z,24.20
2018-08-19T13:30:10.506Z,24.20
2018-08-19T13:32:38.758Z,24.50
2018-08-19T13:35:07.057Z,24.40
2018-08-19T13:37:35.416Z,24.30
2018-08-19T13:40:04.310Z,24.30
2018-08-19T13:42:39.474Z,24.20
2018-08-19T13:45:13.184Z,24.20
2018-08-19T13:47:42.755Z,24.00
2018-08-19T13:50:11.335Z,24.10
2018-08-19T13:52:40.130Z,23.90
2018-08-19T13:55:10.024Z,23.90
2018-08-19T13:57:38.310Z,23.90
2018-08-19T14:00:13.358Z,23.90
2018-08-19T14:02:41.718Z,23.90
2018-08-19T14:05:09.973Z,23.70
2018-08-19T14:07:38.266Z,23.60
2018-08-19T14:10:08.013Z,23.40
2018-08-19T14:12:36.323Z,23.40
2018-08-19T14:15:05.161Z,23.20
2018-08-19T14:17:33.416Z,23.20
2018-08-19T14:20:01.715Z,23.20
2018-08-19T14:22:30.446Z,23.20
2018-08-19T14:24:58.734Z,23.10
2018-08-19T14:27:26.989Z,23.20
2018-08-19T14:29:55.751Z,23.20
2018-08-19T14:32:33.449Z,23.10
2018-08-19T14:35:02.725Z,23.10
2018-08-19T14:37:30.984Z,23.20
2018-08-19T14:40:00.173Z,23.30
2018-08-19T14:42:28.401Z,23.40
2018-08-19T14:44:57.764Z,23.40
2018-08-19T14:47:26.467Z,23.50
2018-08-19T14:49:55.457Z,23.40
2018-08-19T14:52:23.717Z,23.40
2018-08-19T14:54:51.930Z,23.40
2018-08-19T14:57:20.192Z,23.30
2018-08-19T14:59:48.522Z,23.20
2018-08-19T15:02:16.831Z,23.10
2018-08-19T15:04:46.433Z,23.00
2018-08-19T15:07:14.725Z,23.00
2018-08-19T15:09:47.514Z,23.10
2018-08-19T15:12:19.510Z,23.10
2018-08-19T15:14:48.186Z,22.90
2018-08-19T15:17:16.548Z,22.90
2018-08-19T15:19:47.624Z,22.90
2018-08-19T15:22:16.254Z,22.80
2018-08-19T15:24:44.494Z,22.80
2018-08-19T15:27:12.794Z,22.80
2018-08-19T15:29:42.701Z,22.80
2018-08-19T15:32:11.302Z,22.70
2018-08-19T15:34:39.298Z,22.80
2018-08-19T15:37:07.650Z,22.90
2018-08-19T15:39:36.175Z,22.90
2018-08-19T15:42:04.461Z,22.90
2018-08-19T15:44:32.733Z,22.90
2018-08-19T15:47:01.069Z,22.90
2018-08-19T15:49:29.265Z,22.90
2018-08-19T15:51:58.117Z,23.00
2018-08-19T15:54:26.445Z,22.90
2018-08-19T15:56:58.864Z,22.70
2018-08-19T15:59:27.629Z,22.70
2018-08-19T16:01:55.993Z,22.70
2018-08-19T16:04:24.733Z,22.50
2018-08-19T16:06:54.219Z,22.40
2018-08-19T16:09:23.838Z,22.20
2018-08-19T16:11:52.609Z,22.20
2018-08-19T16:14:23.566Z,22.10
2018-08-19T16:16:52.281Z,22.00
2018-08-19T16:19:20.713Z,22.00
2018-08-19T16:21:50.170Z,21.90
2018-08-19T16:24:18.529Z,21.90
2018-08-19T16:26:46.750Z,21.70
2018-08-19T16:29:15.374Z,21.80
2018-08-19T16:31:43.662Z,21.70
2018-08-19T16:34:12.162Z,21.80
2018-08-19T16:36:40.348Z,21.90
2018-08-19T16:39:12.631Z,21.90
2018-08-19T16:41:40.862Z,21.80
2018-08-19T16:44:09.514Z,21.80
2018-08-19T16:46:37.922Z,21.70
2018-08-19T16:49:06.303Z,21.60
2018-08-19T16:51:34.572Z,21.50
2018-08-19T16:54:02.790Z,21.50
2018-08-19T16:56:31.077Z,21.40
2018-08-19T16:58:59.369Z,21.40
2018-08-19T17:01:27.636Z,21.40
2018-08-19T17:03:56.006Z,21.40
2018-08-19T17:06:24.279Z,21.50
2018-08-19T17:08:52.608Z,21.60
2018-08-19T17:11:20.770Z,21.50
2018-08-19T17:13:49.059Z,21.40
2018-08-19T17:16:17.347Z,21.40
2018-08-19T17:18:45.572Z,21.60
2018-08-19T17:21:13.938Z,21.60
2018-08-19T17:23:42.317Z,21.60
2018-08-19T17:26:18.186Z,21.60
2018-08-19T17:28:46.417Z,21.70
2018-08-19T17:31:21.505Z,21.70
2018-08-19T17:33:49.791Z,21.80
2018-08-19T17:36:37.442Z,21.60
2018-08-19T17:39:07.687Z,21.50
2018-08-19T17:41:35.869Z,21.60
2018-08-19T17:44:04.164Z,21.50
2018-08-19T17:46:32.392Z,21.40
2018-08-19T17:49:00.659Z,21.50
2018-08-19T17:51:32.777Z,21.50
2018-08-19T17:54:01.149Z,21.60
2018-08-19T17:56:29.444Z,21.50
2018-08-19T17:58:57.760Z,21.50
2018-08-19T18:01:26.033Z,21.40
2018-08-19T18:03:54.299Z,21.40
2018-08-19T18:06:22.534Z,21.40
2018-08-19T18:08:51.944Z,21.40
2018-08-19T18:11:20.665Z,21.40
2018-08-19T18:13:49.230Z,21.40
2018-08-19T18:16:17.565Z,21.20
2018-08-19T18:18:46.574Z,21.20
2018-08-19T18:21:14.970Z,21.30
2018-08-19T18:23:45.019Z,21.30
2018-08-19T18:26:13.344Z,21.10
2018-08-19T18:28:43.650Z,21.00
2018-08-19T18:31:12.033Z,21.00
2018-08-19T18:33:51.487Z,21.20
2018-08-19T18:36:21.029Z,21.10
2018-08-19T18:38:49.314Z,21.00
2018-08-19T18:41:23.825Z,20.90
2018-08-19T18:43:54.358Z,20.80
2018-08-19T18:46:23.634Z,20.80
2018-08-19T18:48:57.147Z,20.80
2018-08-19T18:51:27.065Z,20.80
2018-08-19T18:53:55.361Z,20.70
2018-08-19T18:56:23.725Z,20.90
2018-08-19T18:58:52.228Z,20.90
2018-08-19T19:01:20.634Z,21.00
2018-08-19T19:03:48.895Z,21.10
2018-08-19T19:06:17.297Z,20.80
2018-08-19T19:08:45.523Z,20.80
2018-08-19T19:11:13.786Z,20.70
2018-08-19T19:13:42.094Z,20.70
2018-08-19T19:16:10.444Z,20.80
2018-08-19T19:18:38.738Z,20.80
2018-08-19T19:21:07.153Z,20.60
2018-08-19T19:23:39.874Z,20.70
2018-08-19T19:26:08.880Z,20.70
2018-08-19T19:28:37.225Z,20.60
2018-08-19T19:31:11.030Z,20.70
2018-08-19T19:33:39.267Z,20.60
2018-08-19T19:36:15.799Z,20.60
2018-08-19T19:38:58.948Z,20.60
2018-08-19T19:41:29.956Z,20.70
2018-08-19T19:43:58.254Z,20.70
2018-08-19T19:46:26.470Z,20.60
2018-08-19T19:48:54.731Z,20.60
2018-08-19T19:51:23.002Z,20.60
2018-08-19T19:53:51.246Z,20.40
2018-08-19T19:56:20.141Z,20.50
2018-08-19T19:58:49.595Z,20.60
2018-08-19T20:01:18.084Z,20.60
2018-08-19T20:03:51.790Z,20.60
2018-08-19T20:06:20.094Z,20.60
2018-08-19T20:08:48.362Z,20.60
2018-08-19T20:11:22.085Z,20.50
2018-08-19T20:13:50.401Z,20.50
2018-08-19T20:16:18.987Z,20.50
2018-08-19T20:18:47.268Z,20.50
2018-08-19T20:21:20.872Z,20.40
2018-08-19T20:23:49.214Z,20.50
2018-08-19T20:26:17.490Z,20.50
2018-08-19T20:28:47.017Z,20.40
2018-08-19T20:31:15.297Z,20.50
2018-08-19T20:33:43.527Z,20.60
2018-08-19T20:36:11.852Z,20.40
2018-08-19T20:38:40.198Z,20.40
2018-08-19T20:41:08.457Z,20.50
2018-08-19T20:43:36.710Z,20.40
2018-08-19T20:46:07.020Z,20.40
2018-08-19T20:48:35.582Z,20.40
2018-08-19T20:51:03.955Z,20.50
2018-08-19T20:53:32.270Z,20.60
2018-08-19T20:56:00.593Z,20.50
2018-08-19T20:58:28.818Z,20.50
2018-08-19T21:00:57.091Z,20.50
2018-08-19T21:03:25.351Z,20.50
2018-08-19T21:05:53.622Z,20.40
2018-08-19T21:08:21.858Z,20.50
2018-08-19T21:10:50.855Z,20.40
2018-08-19T21:13:20.089Z,20.50
2018-08-19T21:15:50.709Z,20.60
2018-08-19T21:18:18.961Z,20.50
2018-08-19T21:20:47.215Z,20.40
2018-08-19T21:23:15.827Z,20.50
2018-08-19T21:25:50.545Z,20.50
2018-08-19T21:28:19.390Z,20.50
2018-08-19T21:30:47.667Z,20.70
2018-08-19T21:33:15.955Z,20.80
2018-08-19T21:35:50.880Z,20.70
2018-08-19T21:38:19.326Z,20.80
2018-08-19T21:40:47.596Z,20.80
2018-08-19T21:43:15.956Z,20.90
2018-08-19T21:45:44.198Z,20.90
2018-08-19T21:48:14.402Z,20.70
2018-08-19T21:50:42.727Z,20.70
2018-08-19T21:53:13.614Z,20.80
2018-08-19T21:55:43.102Z,20.80
2018-08-19T21:58:11.416Z,20.70
2018-08-19T22:01:16.231Z,20.70
2018-08-19T22:03:48.822Z,20.70
2018-08-19T22:06:17.171Z,20.70
2018-08-19T22:08:45.603Z,20.70
2018-08-19T22:11:13.870Z,20.60
2018-08-19T22:13:42.512Z,20.60
2018-08-19T22:16:10.870Z,20.70
2018-08-19T22:18:39.106Z,20.70
2018-08-19T22:21:23.920Z,20.80
2018-08-19T22:23:55.474Z,20.80
2018-08-19T22:26:23.797Z,20.80
2018-08-19T22:29:08.777Z,20.90
2018-08-19T22:31:37.094Z,20.80
2018-08-19T22:34:05.345Z,20.80
2018-08-19T22:36:33.678Z,20.70
2018-08-19T22:39:01.936Z,20.70
2018-08-19T22:41:32.481Z,20.60
2018-08-19T22:44:00.742Z,20.70
2018-08-19T22:46:29.200Z,20.80
2018-08-19T22:48:58.109Z,20.90
2018-08-19T22:51:31.963Z,20.90
2018-08-19T22:54:00.265Z,20.80
2018-08-19T22:56:28.503Z,20.80
2018-08-19T22:58:56.888Z,20.80
2018-08-19T23:01:29.416Z,20.90
2018-08-19T23:04:01.698Z,21.00
2018-08-19T23:06:30.487Z,20.90
2018-08-19T23:08:58.791Z,20.90
2018-08-19T23:11:32.991Z,21.00
2018-08-19T23:14:12.873Z,20.90
2018-08-19T23:16:47.719Z,20.90
2018-08-19T23:19:21.283Z,20.80
2018-08-19T23:21:49.709Z,20.70
2018-08-19T23:24:18.265Z,20.80
2018-08-19T23:26:46.510Z,20.80
2018-08-19T23:29:14.782Z,20.80
2018-08-19T23:31:43.092Z,20.80
2018-08-19T23:34:11.505Z,20.80
2018-08-19T23:36:39.837Z,20.80
2018-08-19T23:39:08.992Z,20.80
2018-08-19T23:41:37.366Z,20.80
2018-08-19T23:44:12.054Z,20.80
2018-08-19T23:46:40.341Z,20.80
2018-08-19T23:49:08.651Z,20.90
2018-08-19T23:51:36.954Z,20.80
2018-08-19T23:54:05.218Z,20.80
2018-08-19T23:56:33.500Z,20.90
2018-08-19T23:59:01.889Z,21.00
